Time;durP1;ratioP1;P1;durP2;ratioP2;P2;SDS_P1;SDS_P2;PMS_P1;PMS_P2;Temp;Humidity;BMP_temperature;BMP_pressure;BME280_temperature;BME280_humidity;BME280_pressure;Samples;Min_cycle;Max_cycle;Signal;HPM_P1;HPM_P2
2022/06/26 00:01:20;;;;;;;15.20;8.40;;;;;;;18.64;82.48;99949.39;105230;1274;74361;-72
2022/06/26 00:04:07;;;;;;;13.20;8.90;;;;;;;18.62;82.55;99954.55;105016;1274;67981;-71
2022/06/26 00:06:56;;;;;;;13.20;8.20;;;;;;;18.57;82.66;99955.04;105187;1274;74248;-72
2022/06/26 00:09:44;;;;;;;12.00;8.20;;;;;;;18.53;82.88;99956.27;104961;1274;60274;-70
2022/06/26 00:12:34;;;;;;;12.20;7.80;;;;;;;18.48;83.42;99959.52;105097;1274;59536;-72
2022/06/26 00:15:21;;;;;;;12.60;8.40;;;;;;;18.44;83.69;99956.95;105025;1272;71007;-71
2022/06/26 00:18:09;;;;;;;12.10;7.00;;;;;;;18.41;83.69;99959.98;105230;1274;68070;-68
2022/06/26 00:20:57;;;;;;;12.80;7.00;;;;;;;18.37;83.62;99958.69;105224;1274;73569;-71
2022/06/26 00:23:45;;;;;;;11.40;7.20;;;;;;;18.37;83.65;99959.83;105164;1274;59682;-71
2022/06/26 00:26:33;;;;;;;12.70;7.20;;;;;;;18.36;83.67;99956.84;104975;1274;60243;-70
2022/06/26 00:29:21;;;;;;;13.00;7.20;;;;;;;18.36;83.82;99957.80;105139;1274;75179;-68
2022/06/26 00:32:08;;;;;;;12.30;7.10;;;;;;;18.33;83.77;99955.79;105208;1274;68635;-67
2022/06/26 00:34:57;;;;;;;11.70;7.10;;;;;;;18.30;83.94;99963.08;104935;1272;71580;-70
2022/06/26 00:37:45;;;;;;;12.90;7.60;;;;;;;18.28;83.77;99964.02;104943;1274;59619;-68
2022/06/26 00:40:33;;;;;;;12.80;7.00;;;;;;;18.25;83.97;99966.02;105206;1274;60484;-67
2022/06/26 00:43:26;;;;;;;13.10;7.20;;;;;;;18.22;83.98;99963.30;104906;1272;74046;-70
2022/06/26 00:46:14;;;;;;;10.60;6.80;;;;;;;18.21;84.34;99964.85;105056;1274;66781;-70
2022/06/26 00:49:02;;;;;;;12.70;7.30;;;;;;;18.19;84.16;99969.92;105013;1274;74399;-70
2022/06/26 00:51:53;;;;;;;14.20;7.60;;;;;;;18.17;84.13;99973.91;105212;1274;59658;-70
2022/06/26 00:54:41;;;;;;;11.10;6.70;;;;;;;18.16;84.43;99976.63;105114;1274;60888;-70
2022/06/26 00:57:28;;;;;;;12.40;7.20;;;;;;;18.14;84.31;99977.08;104904;1274;71710;-71
2022/06/26 01:00:20;;;;;;;11.10;7.20;;;;;;;18.12;84.52;99977.35;104964;1274;66484;-70
2022/06/26 01:03:08;;;;;;;12.60;7.80;;;;;;;18.09;84.62;99978.23;104906;1274;72751;-69
2022/06/26 01:05:56;;;;;;;12.60;7.30;;;;;;;18.07;84.54;99977.02;104950;1274;59643;-68
2022/06/26 01:08:45;;;;;;;12.00;7.50;;;;;;;18.04;84.72;99984.70;104812;1274;59719;-70
2022/06/26 01:11:33;;;;;;;11.80;7.70;;;;;;;18.01;85.21;99986.17;104832;1274;73693;-70
2022/06/26 01:14:22;;;;;;;12.80;7.50;;;;;;;18.00;85.01;99981.17;104918;1274;67282;-70
2022/06/26 01:17:11;;;;;;;11.60;7.20;;;;;;;17.99;85.36;99980.15;104745;1274;73449;-71
2022/06/26 01:19:59;;;;;;;12.80;7.30;;;;;;;17.98;85.31;99979.55;104932;1274;59743;-69
2022/06/26 01:23:01;;;;;;;11.00;6.70;;;;;;;17.97;85.30;99983.42;104971;1274;59714;-70
2022/06/26 01:25:49;;;;;;;13.20;7.20;;;;;;;17.95;85.18;99981.55;104986;1274;74516;-71
2022/06/26 01:28:37;;;;;;;11.80;6.70;;;;;;;17.94;85.08;99985.23;105055;1274;70002;-70
2022/06/26 01:31:25;;;;;;;11.30;7.00;;;;;;;17.90;84.90;99980.27;104880;1274;71608;-70
2022/06/26 01:34:15;;;;;;;9.90;6.50;;;;;;;17.87;84.89;99980.91;104957;1273;59570;-71
2022/06/26 01:37:03;;;;;;;11.40;6.70;;;;;;;17.86;84.99;99977.77;104865;1274;60627;-70
2022/06/26 01:39:51;;;;;;;10.40;6.50;;;;;;;17.84;84.72;99973.14;104865;1275;74720;-70
2022/06/26 01:42:39;;;;;;;14.00;6.50;;;;;;;17.84;84.59;99973.34;105140;1274;68739;-69
2022/06/26 01:45:27;;;;;;;10.80;6.40;;;;;;;17.84;84.35;99979.32;104889;1274;72768;-70
2022/06/26 01:48:17;;;;;;;10.30;6.30;;;;;;;17.84;84.47;99974.38;104894;1274;59768;-70
2022/06/26 01:51:06;;;;;;;10.40;5.90;;;;;;;17.84;83.88;99979.46;105046;1274;60961;-69
2022/06/26 01:53:56;;;;;;;11.40;6.00;;;;;;;17.84;83.80;99980.73;104864;1274;72728;-69
2022/06/26 01:56:44;;;;;;;10.00;5.90;;;;;;;17.86;83.60;99981.45;104998;1274;67822;-70
2022/06/26 01:59:31;;;;;;;10.50;6.10;;;;;;;17.86;83.25;99982.25;104848;1275;73240;-66
2022/06/26 02:02:19;;;;;;;10.10;6.40;;;;;;;17.87;83.23;99981.79;105148;1274;59769;-69
2022/06/26 02:05:08;;;;;;;10.20;6.00;;;;;;;17.88;83.06;99982.92;105167;1273;61378;-70
2022/06/26 02:07:56;;;;;;;10.30;6.50;;;;;;;17.90;83.05;99987.47;105111;1274;71985;-70
2022/06/26 02:13:54;;;;;;;11.50;5.80;;;;;;;17.93;83.30;99986.25;105252;1274;74342;-68
2022/06/26 02:16:44;;;;;;;9.60;6.10;;;;;;;17.94;83.19;99987.25;104997;1274;59698;-69
2022/06/26 02:19:34;;;;;;;10.70;5.80;;;;;;;17.94;83.12;99985.61;105128;1274;61389;-72
2022/06/26 02:22:22;;;;;;;10.10;5.80;;;;;;;17.93;82.98;99988.41;105002;1274;73149;-69
2022/06/26 02:25:09;;;;;;;9.40;6.10;;;;;;;17.92;83.07;99991.06;105019;1273;68583;-71
2022/06/26 02:27:57;;;;;;;10.60;6.10;;;;;;;17.89;83.15;99990.56;105045;1274;74424;-70
2022/06/26 02:30:46;;;;;;;12.30;6.10;;;;;;;17.88;83.02;99987.30;104763;1274;59732;-72
2022/06/26 02:33:35;;;;;;;11.30;6.20;;;;;;;17.88;83.02;99989.27;105064;1274;61955;-74
2022/06/26 02:36:23;;;;;;;11.20;6.20;;;;;;;17.88;82.99;99987.80;105568;1274;73245;-74
2022/06/26 02:39:11;;;;;;;11.80;6.50;;;;;;;17.90;82.97;99987.81;106205;1274;68087;-70
2022/06/26 02:41:59;;;;;;;10.80;6.30;;;;;;;17.92;82.78;99989.39;106459;1274;72858;-70
2022/06/26 02:44:47;;;;;;;10.50;6.40;;;;;;;17.96;82.71;99990.57;106426;1274;59326;-71
2022/06/26 02:47:35;;;;;;;13.20;6.20;;;;;;;17.99;82.65;99993.27;105985;1274;59589;-71
2022/06/26 02:50:25;;;;;;;11.60;7.00;;;;;;;17.99;82.47;99994.92;105837;1274;73828;-71
2022/06/26 02:53:15;;;;;;;11.40;6.10;;;;;;;18.01;82.25;99998.81;105618;1274;69566;-71
2022/06/26 02:56:03;;;;;;;9.30;6.00;;;;;;;18.05;82.24;99998.43;105001;1274;74045;-71
2022/06/26 02:58:53;;;;;;;9.60;5.60;;;;;;;18.09;81.92;100000.64;105274;1274;59763;-71
2022/06/26 03:01:41;;;;;;;12.00;6.30;;;;;;;18.14;81.64;100002.84;104978;1274;60758;-71
2022/06/26 03:04:44;;;;;;;9.40;6.40;;;;;;;18.19;81.63;100004.71;105050;1274;73102;-71
2022/06/26 03:07:36;;;;;;;10.80;6.40;;;;;;;18.24;81.48;100007.42;105011;1272;68407;-70
2022/06/26 03:10:25;;;;;;;11.40;6.40;;;;;;;18.27;81.30;100010.02;104872;1274;74389;-72
2022/06/26 03:13:13;;;;;;;11.00;6.40;;;;;;;18.29;81.27;100010.08;105029;1272;59750;-69
2022/06/26 03:16:04;;;;;;;9.90;6.50;;;;;;;18.30;81.36;100011.00;105079;1274;60661;-72
2022/06/26 03:18:53;;;;;;;9.70;5.90;;;;;;;18.32;81.16;100009.98;104986;1274;74102;-71
2022/06/26 03:21:41;;;;;;;10.50;6.60;;;;;;;18.27;81.14;100004.70;105046;1274;69813;-71
2022/06/26 03:24:33;;;;;;;11.90;6.30;;;;;;;18.39;81.02;100016.22;105046;1274;71967;-74
2022/06/26 03:27:21;;;;;;;11.40;6.30;;;;;;;18.45;80.81;100016.55;104844;1274;59801;-72
2022/06/26 03:30:11;;;;;;;9.70;6.40;;;;;;;18.52;80.54;100015.63;105017;1274;60524;-71
2022/06/26 03:33:02;;;;;;;11.50;6.30;;;;;;;18.57;80.58;100020.50;104940;1274;73231;-72
2022/06/26 03:35:53;;;;;;;11.30;6.30;;;;;;;18.62;80.58;100026.17;104999;1274;68059;-69
2022/06/26 03:38:40;;;;;;;10.90;6.60;;;;;;;18.67;80.47;100027.09;105091;1274;74058;-73
2022/06/26 03:41:30;;;;;;;10.60;6.50;;;;;;;18.71;80.30;100028.63;105609;1274;59645;-73
2022/06/26 03:44:17;;;;;;;10.30;6.50;;;;;;;18.77;79.98;100026.90;105128;1273;62022;-71
2022/06/26 03:47:05;;;;;;;10.00;6.20;;;;;;;18.83;79.85;100028.84;104987;1274;70897;-69
2022/06/26 03:49:54;;;;;;;12.80;6.40;;;;;;;18.92;79.63;100028.59;104906;1274;69555;-70
2022/06/26 03:52:42;;;;;;;11.20;7.30;;;;;;;19.01;79.56;100030.27;104913;1273;74429;-70
2022/06/26 03:55:33;;;;;;;11.70;6.70;;;;;;;19.12;79.47;100031.20;104855;1274;59592;-71
2022/06/26 03:58:23;;;;;;;10.40;6.80;;;;;;;19.23;79.15;100030.52;105423;1274;60918;-72
2022/06/26 04:01:11;;;;;;;10.20;6.20;;;;;;;19.35;78.47;100030.52;105026;1274;70814;-70
2022/06/26 04:03:59;;;;;;;10.80;6.50;;;;;;;19.46;77.96;100032.74;105054;1274;69611;-70
2022/06/26 04:06:51;;;;;;;10.30;6.60;;;;;;;19.57;77.61;100030.67;105203;1273;72910;-72
2022/06/26 04:09:49;;;;;;;10.80;6.50;;;;;;;19.69;77.26;100032.66;105012;1273;59669;-71
2022/06/26 04:12:41;;;;;;;11.00;6.50;;;;;;;19.82;77.21;100036.50;104903;1274;60425;-71
2022/06/26 04:15:31;;;;;;;9.80;6.00;;;;;;;19.95;76.96;100036.00;104919;1274;73948;-72
2022/06/26 04:18:19;;;;;;;11.00;6.40;;;;;;;20.12;76.42;100039.08;105039;1275;69818;-70
2022/06/26 04:21:08;;;;;;;11.20;6.80;;;;;;;20.30;75.87;100036.77;105512;1274;72810;-82
2022/06/26 04:23:56;;;;;;;11.50;6.30;;;;;;;20.52;74.83;100037.73;105164;1272;59784;-79
2022/06/26 04:26:44;;;;;;;10.40;5.50;;;;;;;20.77;73.46;100038.46;105647;1273;59465;-77
2022/06/26 04:29:32;;;;;;;10.60;5.30;;;;;;;21.09;72.48;100042.45;105465;1274;71675;-83
2022/06/26 04:32:21;;;;;;;11.00;5.10;;;;;;;21.41;71.13;100042.80;105826;1274;67942;-83
2022/06/26 04:35:14;;;;;;;9.80;5.70;;;;;;;21.77;70.13;100035.83;107035;1273;71199;-81
2022/06/26 04:38:03;;;;;;;11.30;5.10;;;;;;;22.16;68.15;100040.11;106492;1274;59743;-80
2022/06/26 04:40:50;;;;;;;9.70;4.80;;;;;;;22.62;66.39;100037.55;106165;1274;59669;-81
2022/06/26 04:43:38;;;;;;;9.10;4.60;;;;;;;23.03;64.64;100043.41;105381;1272;73720;-69
2022/06/26 04:46:27;;;;;;;8.70;4.10;;;;;;;23.44;62.38;100041.70;104987;1274;69570;-69
2022/06/26 04:49:17;;;;;;;10.20;4.40;;;;;;;23.89;60.80;100037.52;105280;1274;74525;-67
2022/06/26 04:52:06;;;;;;;11.20;4.90;;;;;;;24.40;58.47;100043.38;104923;1273;59682;-68
2022/06/26 04:54:59;;;;;;;10.40;4.40;;;;;;;24.98;56.49;100045.20;104742;1274;59537;-69
2022/06/26 04:57:47;;;;;;;9.30;4.30;;;;;;;25.50;54.91;100046.18;104868;1274;72890;-68
2022/06/26 05:00:35;;;;;;;17.30;5.20;;;;;;;25.99;52.99;100042.65;104683;1274;66902;-69
2022/06/26 05:03:35;;;;;;;13.00;4.60;;;;;;;26.52;51.81;100044.96;104756;1274;73371;-66
2022/06/26 05:06:59;;;;;;;9.00;4.10;;;;;;;27.07;49.66;100048.92;104902;1274;59666;-71
2022/06/26 05:09:52;;;;;;;8.90;4.40;;;;;;;27.42;47.19;100056.38;104884;1274;59573;-70
2022/06/26 05:12:39;;;;;;;9.60;4.10;;;;;;;27.71;46.11;100048.36;104794;1272;73887;-70
2022/06/26 05:15:31;;;;;;;10.30;4.50;;;;;;;28.08;45.20;100057.16;104791;1273;68849;-71
2022/06/26 05:18:20;;;;;;;7.80;3.60;;;;;;;28.35;44.97;100052.33;104761;1274;72692;-70
2022/06/26 05:21:08;;;;;;;10.80;4.10;;;;;;;28.71;44.12;100060.68;104543;1274;400614;-72
2022/06/26 05:24:00;;;;;;;7.50;3.80;;;;;;;29.08;43.37;100055.11;104795;1274;60754;-71
2022/06/26 05:26:48;;;;;;;10.00;4.20;;;;;;;29.32;42.02;100058.65;104975;1274;74889;-72
2022/06/26 05:29:36;;;;;;;7.80;3.80;;;;;;;29.58;41.13;100058.55;104872;1274;68359;-72
2022/06/26 05:32:25;;;;;;;8.10;3.30;;;;;;;29.81;40.43;100057.27;105020;1274;74106;-71
2022/06/26 05:35:15;;;;;;;7.40;3.30;;;;;;;30.12;39.61;100058.48;104659;1273;59778;-70
2022/06/26 05:38:04;;;;;;;7.20;3.20;;;;;;;30.48;39.38;100058.84;104907;1274;59672;-72
2022/06/26 05:40:52;;;;;;;8.60;3.60;;;;;;;30.86;38.24;100061.52;105080;1274;73815;-69
2022/06/26 05:43:41;;;;;;;7.70;3.30;;;;;;;31.33;36.95;100062.45;104755;1274;66681;-71
2022/06/26 05:46:31;;;;;;;7.70;3.10;;;;;;;32.53;34.65;100061.10;105103;1273;71804;-69
2022/06/26 05:49:31;;;;;;;7.70;3.20;;;;;;;33.61;32.97;100060.34;105214;1273;59701;-73
2022/06/26 05:52:38;;;;;;;7.00;2.90;;;;;;;34.60;31.64;100060.31;104969;1274;59633;-71
2022/06/26 05:55:55;;;;;;;7.20;3.10;;;;;;;35.58;29.86;100059.60;105321;1274;72986;-72
2022/06/26 05:58:58;;;;;;;7.80;2.90;;;;;;;36.25;28.66;100060.60;105046;1274;67163;-71
2022/06/26 06:02:06;;;;;;;7.90;3.00;;;;;;;37.02;27.57;100059.92;105203;1274;72582;-71
2022/06/26 06:04:54;;;;;;;6.70;2.90;;;;;;;37.56;26.58;100056.29;105973;1273;59534;-74
2022/06/26 06:07:43;;;;;;;7.90;2.80;;;;;;;37.98;26.14;100056.98;105222;1274;59609;-71
2022/06/26 06:10:30;;;;;;;7.80;3.00;;;;;;;38.32;25.40;100056.09;104922;1274;73766;-71
2022/06/26 06:13:26;;;;;;;7.10;2.80;;;;;;;38.70;25.22;100052.60;105551;1273;66506;-73
2022/06/26 06:16:14;;;;;;;8.30;2.40;;;;;;;39.14;24.67;100051.60;105724;1273;73186;-73
2022/06/26 06:19:02;;;;;;;6.60;2.60;;;;;;;39.68;23.71;100053.91;105606;1273;59736;-76
2022/06/26 06:21:50;;;;;;;6.20;2.20;;;;;;;40.07;23.07;100049.64;105719;1274;61000;-73
2022/06/26 06:24:42;;;;;;;6.30;2.50;;;;;;;40.34;22.55;100050.11;106071;1273;71976;-73
2022/06/26 06:27:30;;;;;;;7.70;2.40;;;;;;;40.63;22.43;100058.58;105854;1274;68533;-72
2022/06/26 06:30:23;;;;;;;7.40;2.70;;;;;;;40.86;22.02;100054.38;105908;1274;72765;-73
2022/06/26 06:33:11;;;;;;;7.10;2.90;;;;;;;41.25;21.67;100059.54;105353;1274;59746;-72
2022/06/26 06:36:02;;;;;;;7.10;2.70;;;;;;;41.33;20.72;100061.98;106253;1274;59763;-73
2022/06/26 06:38:51;;;;;;;6.30;2.50;;;;;;;41.72;20.86;100060.21;105424;1274;75392;-72
2022/06/26 06:41:41;;;;;;;10.00;3.20;;;;;;;41.81;21.09;100062.17;104778;1274;69647;-69
2022/06/26 06:44:31;;;;;;;6.30;2.00;;;;;;;41.87;19.96;100062.48;105059;1274;72968;-70
2022/06/26 06:47:38;;;;;;;6.80;2.20;;;;;;;42.05;19.87;100060.41;104942;1274;59694;-71
2022/06/26 06:51:05;;;;;;;7.10;2.00;;;;;;;42.05;19.49;100063.01;105070;1273;60997;-74
2022/06/26 06:53:53;;;;;;;7.10;2.30;;;;;;;42.07;19.98;100060.90;105348;1272;74517;-71
2022/06/26 06:56:42;;;;;;;7.00;2.30;;;;;;;42.02;19.73;100060.18;105052;1274;67812;-70
2022/06/26 06:59:30;;;;;;;6.70;2.40;;;;;;;41.93;20.03;100062.18;104704;1273;72536;-70
2022/06/26 07:02:18;;;;;;;7.10;2.30;;;;;;;42.35;19.40;100060.67;104732;1274;60230;-70
2022/06/26 07:05:08;;;;;;;7.40;2.00;;;;;;;42.88;19.25;100058.80;104894;1274;60269;-75
2022/06/26 07:07:57;;;;;;;6.60;2.10;;;;;;;43.27;18.59;100057.98;106279;1273;74877;-73
2022/06/26 07:10:45;;;;;;;8.80;2.50;;;;;;;43.54;18.57;100057.08;105290;1274;66551;-73
2022/06/26 07:13:33;;;;;;;8.00;2.50;;;;;;;43.39;18.45;100053.48;105014;1273;72725;-73
2022/06/26 07:16:21;;;;;;;7.20;2.90;;;;;;;43.43;19.15;100051.77;105309;1272;59785;-71
2022/06/26 07:19:11;;;;;;;7.00;2.60;;;;;;;43.79;19.23;100048.02;105040;1274;60615;-71
2022/06/26 07:21:59;;;;;;;8.20;2.70;;;;;;;43.99;19.15;100050.34;105087;1273;71868;-73
2022/06/26 07:24:47;;;;;;;7.70;2.80;;;;;;;44.16;19.00;100052.13;105390;1273;69127;-73
2022/06/26 07:27:53;;;;;;;6.40;2.90;;;;;;;44.12;19.45;100053.44;105301;1273;72620;-72
2022/06/26 07:30:42;;;;;;;7.00;2.60;;;;;;;44.13;19.26;100054.98;104876;1277;59780;-74
2022/06/26 07:36:47;;;;;;;7.80;2.70;;;;;;;44.12;19.49;100051.20;104787;1276;74711;-75
2022/06/26 07:39:37;;;;;;;8.10;3.70;;;;;;;43.99;19.78;100046.42;104904;1277;68103;-75
2022/06/26 07:42:24;;;;;;;7.60;3.10;;;;;;;43.93;19.73;100047.02;104866;1276;74144;-73
2022/06/26 07:45:12;;;;;;;9.40;2.90;;;;;;;43.84;19.86;100048.41;104686;1277;61324;-77
2022/06/26 07:48:16;;;;;;;8.60;3.50;;;;;;;43.74;19.88;100046.77;105148;1276;60602;-76
2022/06/26 07:51:04;;;;;;;10.00;3.40;;;;;;;43.81;19.87;100046.78;104641;1276;74643;-75
2022/06/26 07:53:52;;;;;;;7.70;3.00;;;;;;;43.97;19.58;100039.84;105098;1276;69102;-76
2022/06/26 07:56:42;;;;;;;8.50;3.40;;;;;;;44.07;19.61;100045.48;104856;1276;73889;-76
2022/06/26 07:59:30;;;;;;;9.90;3.10;;;;;;;44.05;19.20;100040.78;104937;1276;59678;-74
2022/06/26 08:02:17;;;;;;;9.60;3.00;;;;;;;44.13;19.22;100041.46;104732;1276;62028;-76
2022/06/26 08:05:07;;;;;;;11.40;3.30;;;;;;;44.19;19.24;100043.67;105071;1276;72993;-76
2022/06/26 08:07:54;;;;;;;7.40;3.00;;;;;;;44.12;19.20;100042.29;104764;1276;66729;-76
2022/06/26 08:10:42;;;;;;;8.90;3.80;;;;;;;43.97;19.36;100041.86;104696;1276;73207;-78
2022/06/26 08:13:30;;;;;;;9.80;3.10;;;;;;;44.05;19.41;100043.11;104841;1274;59845;-77
2022/06/26 08:16:18;;;;;;;7.60;3.20;;;;;;;44.04;19.34;100047.95;105478;1273;60543;-77
2022/06/26 08:19:06;;;;;;;9.10;3.90;;;;;;;43.84;19.38;100047.48;105252;1274;73313;-75
2022/06/26 08:22:04;;;;;;;7.30;3.50;;;;;;;43.71;19.43;100045.29;105046;1274;67984;-77
2022/06/26 08:24:53;;;;;;;8.30;3.70;;;;;;;43.42;19.52;100044.36;105105;1274;72833;-74
2022/06/26 08:27:42;;;;;;;7.80;3.80;;;;;;;43.24;20.11;100044.17;104968;1273;59665;-76
2022/06/26 08:30:30;;;;;;;8.00;3.70;;;;;;;43.11;20.31;100043.91;105103;1274;61945;-74
2022/06/26 08:33:18;;;;;;;8.70;3.70;;;;;;;42.99;20.17;100048.08;104978;1273;71180;-72
2022/06/26 08:36:05;;;;;;;8.00;3.40;;;;;;;42.95;20.35;100049.74;105034;1273;68579;-76
2022/06/26 08:38:53;;;;;;;8.00;3.50;;;;;;;42.87;20.26;100050.31;105054;1274;71352;-77
2022/06/26 08:41:45;;;;;;;7.40;3.20;;;;;;;42.81;19.82;100052.29;104986;1273;59795;-76
2022/06/26 08:44:33;;;;;;;8.50;3.40;;;;;;;42.59;19.58;100047.80;105120;1274;59763;-75
2022/06/26 08:47:24;;;;;;;9.00;3.60;;;;;;;42.59;20.18;100050.39;105115;1274;73004;-74
2022/06/26 08:50:12;;;;;;;7.80;3.10;;;;;;;42.53;20.67;100051.51;104997;1274;67820;-77
2022/06/26 08:53:01;;;;;;;7.70;3.20;;;;;;;42.52;20.98;100047.23;105013;1274;73259;-76
2022/06/26 08:55:50;;;;;;;7.50;3.40;;;;;;;42.18;20.93;100050.89;105373;1273;59674;-76
2022/06/26 08:58:38;;;;;;;9.00;3.60;;;;;;;42.04;21.51;100049.42;105017;1274;60553;-76
2022/06/26 09:01:27;;;;;;;9.00;3.70;;;;;;;42.09;21.69;100047.25;104954;1274;73429;-76
2022/06/26 09:04:16;;;;;;;8.20;3.60;;;;;;;41.96;21.21;100048.42;105079;1274;68173;-77
2022/06/26 09:07:07;;;;;;;8.30;3.40;;;;;;;41.87;21.43;100052.35;105062;1274;72916;-76
2022/06/26 09:10:09;;;;;;;9.90;3.70;;;;;;;41.83;21.61;100045.95;104966;1274;59665;-74
2022/06/26 09:13:02;;;;;;;8.00;3.20;;;;;;;41.91;21.81;100043.08;105245;1274;59584;-77
2022/06/26 09:15:56;;;;;;;8.40;3.20;;;;;;;41.94;21.63;100046.11;105155;1273;74826;-76
2022/06/26 09:18:44;;;;;;;9.10;3.70;;;;;;;41.80;21.92;100043.77;104923;1274;68314;-77
2022/06/26 09:21:32;;;;;;;7.30;3.20;;;;;;;41.80;21.75;100046.61;105062;1272;71540;-76
2022/06/26 09:24:21;;;;;;;7.50;3.30;;;;;;;41.75;21.71;100042.35;105245;1274;59544;-75
2022/06/26 09:27:15;;;;;;;9.10;3.30;;;;;;;41.78;21.87;100044.83;105333;1274;59567;-77
2022/06/26 09:30:05;;;;;;;8.50;3.60;;;;;;;41.57;22.31;100044.17;105046;1274;73054;-77
2022/06/26 09:32:53;;;;;;;7.60;3.30;;;;;;;41.34;22.24;100048.81;105299;1274;66983;-77
2022/06/26 09:35:42;;;;;;;9.50;3.40;;;;;;;41.44;22.32;100043.84;105042;1271;72631;-76
2022/06/26 09:38:34;;;;;;;7.80;3.10;;;;;;;41.56;22.10;100048.08;104951;1273;59806;-75
2022/06/26 09:41:34;;;;;;;7.60;3.40;;;;;;;41.81;22.06;100053.60;105076;1274;60399;-75
2022/06/26 09:44:23;;;;;;;8.60;3.70;;;;;;;41.93;22.05;100055.31;105328;1274;73880;-76
2022/06/26 09:47:31;;;;;;;7.90;3.30;;;;;;;41.92;22.04;100053.61;104997;1273;69440;-77
2022/06/26 09:50:19;;;;;;;8.60;3.20;;;;;;;41.68;21.28;100055.98;105176;1272;72763;-77
2022/06/26 09:53:08;;;;;;;7.10;3.40;;;;;;;41.45;21.94;100054.10;105094;1272;59739;-77
2022/06/26 09:55:59;;;;;;;6.70;3.20;;;;;;;41.45;21.23;100054.10;105048;1274;60576;-81
2022/06/26 09:58:50;;;;;;;7.40;3.10;;;;;;;41.33;21.59;100050.55;105403;1274;73282;-77
2022/06/26 10:07:53;;;;;;;8.40;2.80;;;;;;;40.81;22.94;100037.73;105045;1274;59738;-75
2022/06/26 10:10:42;;;;;;;6.70;3.00;;;;;;;41.03;22.19;100035.66;105485;1272;61555;-75
2022/06/26 10:13:34;;;;;;;7.00;3.10;;;;;;;41.20;21.99;100033.69;105135;1274;73597;-74
2022/06/26 10:16:31;;;;;;;8.60;3.80;;;;;;;41.43;21.93;100032.05;104995;1273;68531;-74
2022/06/26 10:19:38;;;;;;;7.10;3.40;;;;;;;41.48;21.38;100032.13;105153;1273;72886;-76
2022/06/26 10:22:44;;;;;;;7.60;2.70;;;;;;;41.55;20.49;100033.02;105143;1274;59657;-74
2022/06/26 10:25:33;;;;;;;11.30;3.30;;;;;;;41.63;20.63;100033.30;105058;1274;59893;-74
2022/06/26 10:28:21;;;;;;;8.30;3.30;;;;;;;41.70;20.48;100030.01;105386;1274;73463;-77
2022/06/26 10:31:08;;;;;;;7.40;2.50;;;;;;;41.77;20.50;100031.45;105142;1273;67997;-76
2022/06/26 10:34:09;;;;;;;6.30;2.80;;;;;;;41.84;20.04;100030.42;105000;1274;72749;-74
2022/06/26 10:37:04;;;;;;;7.60;3.10;;;;;;;42.07;20.00;100035.55;104981;1273;59778;-76
2022/06/26 10:39:54;;;;;;;8.90;3.20;;;;;;;42.27;19.88;100031.91;105017;1273;60276;-75
2022/06/26 10:42:54;;;;;;;11.10;3.50;;;;;;;42.42;19.70;100033.89;105077;1274;73746;-75
2022/06/26 10:45:42;;;;;;;9.10;2.80;;;;;;;42.58;19.51;100034.38;105386;1274;68038;-77
2022/06/26 10:48:31;;;;;;;8.00;3.00;;;;;;;42.64;19.19;100029.63;105414;1272;74355;-77
2022/06/26 10:51:29;;;;;;;7.40;2.90;;;;;;;42.58;18.99;100026.20;105157;1274;59589;-78
2022/06/26 10:54:22;;;;;;;9.10;3.00;;;;;;;42.40;19.39;100032.37;105385;1274;60791;-76
2022/06/26 10:57:15;;;;;;;8.30;3.20;;;;;;;41.89;19.72;100030.40;105350;1274;73413;-76
2022/06/26 11:00:12;;;;;;;8.60;3.30;;;;;;;41.69;20.09;100021.67;105047;1274;68277;-77
2022/06/26 11:03:13;;;;;;;7.70;3.20;;;;;;;41.82;20.63;100018.68;104787;1273;73813;-74
2022/06/26 11:06:06;;;;;;;7.70;2.80;;;;;;;41.93;20.36;100018.06;105299;1274;60038;-78
2022/06/26 11:08:56;;;;;;;7.00;2.60;;;;;;;41.51;20.58;100015.66;105136;1274;60414;-77
2022/06/26 11:11:51;;;;;;;7.50;2.80;;;;;;;41.12;20.59;100009.81;105471;1274;73110;-74
2022/06/26 11:14:38;;;;;;;6.10;2.60;;;;;;;40.64;21.62;100006.59;104847;1273;68134;-74
2022/06/26 11:17:27;;;;;;;7.50;2.80;;;;;;;40.30;22.20;100010.50;105234;1272;73129;-74
2022/06/26 11:23:26;;;;;;;6.20;2.90;;;;;;;39.35;22.48;100008.84;105234;1274;60337;-75
2022/06/26 11:26:16;;;;;;;8.30;2.70;;;;;;;39.17;21.83;100005.37;104884;1274;72463;-74
2022/06/26 11:29:08;;;;;;;7.30;3.20;;;;;;;39.09;22.56;100004.74;105629;1273;68141;-72
2022/06/26 11:31:56;;;;;;;8.80;3.30;;;;;;;38.95;22.81;100008.34;105294;1274;72872;-74
2022/06/26 11:34:55;;;;;;;8.20;3.20;;;;;;;38.49;23.66;100016.30;104877;1274;59632;-71
2022/06/26 11:37:43;;;;;;;11.80;3.30;;;;;;;37.98;24.74;100025.70;105016;1273;59659;-73
2022/06/26 11:40:31;;;;;;;7.40;3.10;;;;;;;37.40;25.71;100023.98;105049;1274;74311;-77
2022/06/26 11:43:20;;;;;;;7.20;3.10;;;;;;;36.96;26.36;100017.04;105047;1274;68411;-76
2022/06/26 11:46:08;;;;;;;10.50;3.50;;;;;;;36.42;27.16;100015.73;105206;1273;72730;-76
2022/06/26 11:48:56;;;;;;;7.60;3.50;;;;;;;35.70;27.49;100015.42;105094;1274;59756;-75
2022/06/26 11:51:44;;;;;;;7.10;3.40;;;;;;;35.22;28.25;100019.88;104774;1273;59632;-76
2022/06/26 11:54:32;;;;;;;7.70;3.20;;;;;;;34.83;29.20;100018.48;105010;1273;73594;-79
2022/06/26 11:57:20;;;;;;;7.30;3.30;;;;;;;34.55;29.56;100016.96;105123;1272;68049;-77
2022/06/26 12:00:10;;;;;;;7.20;3.40;;;;;;;34.35;30.47;100017.39;104986;1274;74254;-77
2022/06/26 12:03:02;;;;;;;7.50;3.10;;;;;;;34.07;30.73;100018.05;105319;1273;60369;-77
2022/06/26 12:05:53;;;;;;;8.10;4.00;;;;;;;33.76;31.35;100019.65;104919;1273;61647;-78
2022/06/26 12:08:46;;;;;;;8.80;3.80;;;;;;;33.43;32.12;100022.73;105013;1273;75017;-78
2022/06/26 12:11:41;;;;;;;7.10;3.60;;;;;;;33.24;32.55;100023.67;104915;1274;69688;-79
2022/06/26 12:14:29;;;;;;;6.80;3.80;;;;;;;33.11;32.68;100032.06;105442;1274;73994;-75
2022/06/26 12:17:27;;;;;;;7.00;3.70;;;;;;;32.97;32.43;100029.14;105234;1274;59797;-77
2022/06/26 12:20:15;;;;;;;9.90;3.70;;;;;;;32.74;32.28;100032.71;105235;1274;61332;-78
2022/06/26 12:23:04;;;;;;;8.10;3.60;;;;;;;32.47;32.79;100024.34;105199;1274;73335;-78
2022/06/26 12:26:03;;;;;;;7.30;3.50;;;;;;;32.28;33.23;100028.63;105114;1273;66529;-77
2022/06/26 12:29:00;;;;;;;9.40;3.70;;;;;;;32.21;33.49;100033.26;104954;1274;73257;-74
2022/06/26 12:31:48;;;;;;;8.60;3.60;;;;;;;32.19;33.47;100028.27;105266;1274;59912;-72
2022/06/26 12:34:36;;;;;;;7.40;3.50;;;;;;;32.07;33.17;100026.52;105226;1272;60740;-71
2022/06/26 12:37:24;;;;;;;7.50;3.20;;;;;;;31.78;32.99;100030.50;104923;1274;73215;-74
2022/06/26 12:40:12;;;;;;;7.70;3.60;;;;;;;31.54;32.68;100033.48;105060;1274;68368;-71
2022/06/26 12:43:02;;;;;;;7.80;3.30;;;;;;;31.36;33.73;100039.02;105182;1273;72633;-74
2022/06/26 12:45:50;;;;;;;10.30;3.50;;;;;;;31.30;34.29;100033.52;104935;1274;59784;-74
2022/06/26 12:48:38;;;;;;;8.10;3.40;;;;;;;31.16;34.46;100032.70;104932;1272;60961;-72
2022/06/26 12:51:27;;;;;;;7.20;3.10;;;;;;;30.99;34.78;100035.77;105004;1273;73260;-78
2022/06/26 12:54:15;;;;;;;8.20;3.40;;;;;;;30.89;34.99;100038.48;105125;1274;70301;-76
2022/06/26 12:57:03;;;;;;;8.80;3.70;;;;;;;31.01;34.89;100030.52;105760;1274;72909;-79
2022/06/26 12:59:50;;;;;;;9.10;3.80;;;;;;;31.15;34.58;100029.16;105441;1274;59676;-77
2022/06/26 13:02:38;;;;;;;7.10;3.40;;;;;;;31.22;34.78;100032.11;105925;1272;60536;-78
2022/06/26 13:05:29;;;;;;;7.80;3.30;;;;;;;31.39;34.51;100027.51;106997;1272;74006;-78
2022/06/26 13:08:19;;;;;;;7.20;3.30;;;;;;;31.50;34.13;100027.84;106491;1272;67338;-76
2022/06/26 13:11:26;;;;;;;8.80;3.50;;;;;;;31.62;33.58;100024.96;106535;1273;73306;-76
2022/06/26 13:14:14;;;;;;;6.40;3.10;;;;;;;31.85;33.00;100028.19;106465;1274;59761;-77
2022/06/26 13:17:01;;;;;;;8.00;2.90;;;;;;;31.95;32.53;100027.51;107208;1274;59609;-74
2022/06/26 13:19:50;;;;;;;7.70;3.00;;;;;;;31.81;31.84;100030.42;107669;1274;72088;-74